Time;durP1;ratioP1;P1;durP2;ratioP2;P2;SDS_P1;SDS_P2;PMS_P1;PMS_P2;Temp;Humidity;BMP_temperature;BMP_pressure;BME280_temperature;BME280_humidity;BME280_pressure;Samples;Min_cycle;Max_cycle;Signal;HPM_P1;HPM_P2
2022/04/02 00:01:00;;;;;;;3.57;2.93;;;3.90;99.90;;;;;;5074443;28;20251;-62
2022/04/02 00:03:26;;;;;;;4.83;3.10;;;3.90;99.90;;;;;;5075568;28;20181;-62
2022/04/02 00:05:52;;;;;;;4.83;2.90;;;3.90;99.90;;;;;;5075391;28;20212;-62
2022/04/02 00:08:18;;;;;;;2.57;2.37;;;3.90;99.90;;;;;;5075407;28;20686;-63
2022/04/02 00:10:44;;;;;;;3.57;2.77;;;3.90;99.90;;;;;;5075280;28;20173;-63
2022/04/02 00:13:09;;;;;;;3.63;3.10;;;3.90;99.90;;;;;;5074837;28;20181;-62
2022/04/02 00:15:35;;;;;;;3.37;2.73;;;3.80;99.90;;;;;;5074898;28;20200;-62
2022/04/02 00:18:01;;;;;;;5.30;3.17;;;3.80;99.90;;;;;;5075001;28;20212;-62
2022/04/02 00:20:27;;;;;;;4.27;2.60;;;3.80;99.90;;;;;;5075143;28;20167;-62
2022/04/02 00:25:37;;;;;;;3.13;2.83;;;3.80;99.90;;;;;;5074998;28;20542;-62
2022/04/02 00:28:03;;;;;;;4.77;2.80;;;3.70;99.90;;;;;;5074649;28;20184;-62
2022/04/02 00:30:29;;;;;;;5.00;2.90;;;3.70;99.90;;;;;;5074775;28;20179;-61
2022/04/02 00:32:54;;;;;;;3.57;3.03;;;3.70;99.90;;;;;;5074942;28;20627;-62
2022/04/02 00:35:20;;;;;;;4.80;2.57;;;3.80;99.90;;;;;;5074545;28;20176;-63
2022/04/02 00:37:46;;;;;;;5.40;3.00;;;3.80;99.90;;;;;;5074830;28;20291;-61
2022/04/02 00:40:11;;;;;;;4.17;3.53;;;3.80;99.90;;;;;;5074515;28;20165;-62
2022/04/02 00:42:37;;;;;;;4.57;2.87;;;3.90;99.90;;;;;;5073921;28;20507;-62
2022/04/02 00:45:03;;;;;;;5.33;3.37;;;3.90;99.90;;;;;;5074675;28;20222;-62
2022/04/02 00:47:29;;;;;;;6.53;3.93;;;3.80;99.90;;;;;;5074830;28;20176;-61
2022/04/02 00:49:55;;;;;;;2.60;2.37;;;3.80;99.90;;;;;;5074552;28;20188;-62
2022/04/02 00:52:21;;;;;;;4.37;3.13;;;3.70;99.90;;;;;;5074515;28;20656;-62
2022/04/02 00:54:49;;;;;;;5.00;3.27;;;3.70;99.90;;;;;;5073991;28;20208;-62
2022/04/02 00:57:15;;;;;;;5.47;3.00;;;3.60;99.90;;;;;;5073814;28;20266;-62
2022/04/02 00:59:41;;;;;;;4.80;3.10;;;3.60;99.90;;;;;;5074363;28;20180;-62
2022/04/02 01:02:07;;;;;;;6.73;2.90;;;3.60;99.90;;;;;;5074236;28;20172;-63
2022/04/02 01:04:32;;;;;;;5.53;3.37;;;3.60;99.90;;;;;;5074062;28;20164;-61
2022/04/02 01:06:59;;;;;;;7.13;3.13;;;3.60;99.90;;;;;;5074278;28;20187;-62
2022/04/02 01:09:25;;;;;;;4.80;3.27;;;3.60;99.90;;;;;;5074024;28;20211;-62
2022/04/02 01:11:52;;;;;;;3.40;2.90;;;3.60;99.90;;;;;;5073494;28;20176;-62
2022/04/02 01:14:18;;;;;;;4.50;3.10;;;3.50;99.90;;;;;;5074216;28;20173;-62
2022/04/02 01:16:44;;;;;;;4.20;3.30;;;3.50;99.90;;;;;;5073935;28;20216;-62
2022/04/02 01:19:10;;;;;;;4.00;3.10;;;3.60;99.90;;;;;;5073959;28;20247;-62
2022/04/02 01:21:36;;;;;;;7.13;3.17;;;3.60;99.90;;;;;;5074023;28;20200;-62
2022/04/02 01:24:03;;;;;;;4.10;2.97;;;3.60;99.90;;;;;;5074005;28;20221;-63
2022/04/02 01:26:29;;;;;;;6.77;3.30;;;3.60;99.90;;;;;;5073117;28;20251;-62
2022/04/02 01:28:59;;;;;;;5.43;3.03;;;3.50;99.90;;;;;;5073805;28;20180;-63
2022/04/02 01:31:25;;;;;;;4.50;3.20;;;3.50;99.90;;;;;;5073892;28;20268;-62
2022/04/02 01:33:52;;;;;;;3.70;3.33;;;3.50;99.90;;;;;;5074080;28;20556;-63
2022/04/02 01:36:20;;;;;;;4.43;3.50;;;3.40;99.90;;;;;;5073665;28;20172;-63
2022/04/02 01:38:46;;;;;;;3.77;3.40;;;3.40;99.90;;;;;;5073414;28;20180;-62
2022/04/02 01:41:12;;;;;;;4.87;3.30;;;3.40;99.90;;;;;;5073200;28;20283;-62
2022/04/02 01:43:38;;;;;;;4.93;3.87;;;3.30;99.90;;;;;;5073502;28;20269;-62
2022/04/02 01:46:05;;;;;;;5.03;3.60;;;3.20;99.90;;;;;;5073621;28;20627;-62
2022/04/02 01:48:31;;;;;;;3.60;3.30;;;3.10;99.90;;;;;;5073600;28;20168;-62
2022/04/02 01:50:57;;;;;;;9.43;3.70;;;3.10;99.90;;;;;;5073590;28;20262;-63
2022/04/02 01:53:24;;;;;;;4.07;3.43;;;3.00;99.90;;;;;;5073111;28;20173;-63
2022/04/02 01:55:50;;;;;;;5.20;3.37;;;2.90;99.90;;;;;;5072700;28;20223;-62
2022/04/02 01:58:16;;;;;;;7.07;3.17;;;2.80;99.90;;;;;;5073324;28;20210;-62
2022/04/02 02:00:42;;;;;;;3.80;3.40;;;2.80;99.90;;;;;;5073456;28;20173;-63
2022/04/02 02:03:08;;;;;;;4.20;3.70;;;2.80;99.90;;;;;;5073205;28;20171;-61
2022/04/02 02:05:35;;;;;;;5.33;3.27;;;2.80;99.90;;;;;;5073208;28;20172;-62
2022/04/02 02:08:02;;;;;;;7.07;3.40;;;2.80;99.90;;;;;;5072979;28;20176;-62
2022/04/02 02:10:27;;;;;;;3.53;3.23;;;2.80;99.90;;;;;;5072968;28;20696;-62
2022/04/02 02:12:53;;;;;;;5.13;3.60;;;2.80;99.90;;;;;;5073164;28;20181;-61
2022/04/02 02:15:19;;;;;;;4.23;3.30;;;2.70;99.90;;;;;;5073162;28;20263;-61
2022/04/02 02:17:49;;;;;;;6.03;3.67;;;2.70;99.90;;;;;;5073069;28;20296;-62
2022/04/02 02:20:16;;;;;;;3.73;3.37;;;2.70;99.90;;;;;;5073097;28;20676;-61
2022/04/02 02:22:44;;;;;;;5.80;3.60;;;2.70;99.90;;;;;;5072342;28;20180;-62
2022/04/02 02:25:12;;;;;;;5.23;3.60;;;2.70;99.90;;;;;;5072592;28;20643;-61
2022/04/02 02:27:38;;;;;;;6.83;3.37;;;2.80;99.90;;;;;;5073002;28;20172;-61
2022/04/02 02:30:06;;;;;;;6.30;3.83;;;2.80;99.90;;;;;;5073123;28;20598;-62
2022/04/02 02:32:36;;;;;;;5.50;3.67;;;2.70;99.90;;;;;;5072873;28;20169;-62
2022/04/02 02:37:48;;;;;;;6.47;3.40;;;2.60;99.90;;;;;;5072861;28;20565;-62
2022/04/02 02:40:14;;;;;;;6.43;3.40;;;2.60;99.90;;;;;;5072877;28;20187;-62
2022/04/02 02:42:39;;;;;;;5.53;3.40;;;2.60;99.90;;;;;;5072902;28;20175;-62
2022/04/02 02:45:06;;;;;;;3.37;2.77;;;2.60;99.90;;;;;;5072723;28;20573;-62
2022/04/02 02:47:31;;;;;;;5.60;2.60;;;2.50;99.90;;;;;;5072895;28;20225;-62
2022/04/02 02:49:57;;;;;;;6.33;2.97;;;2.50;99.90;;;;;;5072553;28;20200;-62
2022/04/02 02:52:23;;;;;;;5.40;2.80;;;2.50;99.90;;;;;;5072515;28;20262;-62
2022/04/02 02:54:48;;;;;;;3.67;3.30;;;2.50;99.90;;;;;;5072589;28;20302;-62
2022/04/02 02:57:14;;;;;;;4.67;2.87;;;2.50;99.90;;;;;;5072419;28;20283;-63
2022/04/02 02:59:40;;;;;;;3.60;2.97;;;2.50;99.90;;;;;;5073077;28;20687;-61
2022/04/02 03:02:05;;;;;;;3.30;2.87;;;2.40;99.90;;;;;;5072780;28;20180;-61
2022/04/02 03:04:31;;;;;;;3.93;3.10;;;2.40;99.90;;;;;;5072522;28;20522;-62
2022/04/02 03:06:57;;;;;;;3.17;2.87;;;2.40;99.90;;;;;;5072098;28;20627;-62
2022/04/02 03:09:23;;;;;;;4.10;3.47;;;2.40;99.90;;;;;;5072558;28;20681;-62
2022/04/02 03:11:49;;;;;;;7.83;3.40;;;2.40;99.90;;;;;;5072723;28;20171;-62
2022/04/02 03:14:15;;;;;;;3.63;3.17;;;2.40;99.90;;;;;;5072580;28;20187;-62
2022/04/02 03:16:41;;;;;;;7.17;3.63;;;2.40;99.90;;;;;;5072209;28;20169;-61
2022/04/02 03:19:07;;;;;;;5.63;3.40;;;2.30;99.90;;;;;;5072150;28;20184;-62
2022/04/02 03:21:33;;;;;;;4.00;2.93;;;2.30;99.90;;;;;;5071887;28;20189;-62
2022/04/02 03:23:59;;;;;;;6.30;3.53;;;2.30;99.90;;;;;;5072364;28;20183;-62
2022/04/02 03:26:27;;;;;;;4.23;3.27;;;2.30;99.90;;;;;;5072285;28;20171;-62
2022/04/02 03:28:53;;;;;;;5.17;3.30;;;2.30;99.90;;;;;;5072254;28;20262;-62
2022/04/02 03:31:19;;;;;;;4.63;3.27;;;2.30;99.90;;;;;;5072332;28;20255;-61
2022/04/02 03:33:45;;;;;;;4.17;3.00;;;2.30;99.90;;;;;;5072320;28;20169;-62
2022/04/02 03:36:11;;;;;;;6.07;3.17;;;2.40;99.90;;;;;;5074567;28;20187;-62
2022/04/02 03:38:40;;;;;;;6.10;2.97;;;2.30;99.90;;;;;;5075774;28;20291;-62
2022/04/02 03:41:05;;;;;;;5.37;3.37;;;2.30;99.90;;;;;;5075808;28;20551;-63
2022/04/02 03:43:32;;;;;;;3.43;3.13;;;2.30;99.90;;;;;;5075834;28;20175;-63
2022/04/02 03:47:08;;;;;;;5.20;2.90;;;2.20;99.90;;;;;;5075401;28;20171;-62
2022/04/02 03:48:44;;;;;;;4.53;3.20;;;2.20;99.90;;;;;;5075275;28;20191;-62
2022/04/02 03:51:10;;;;;;;4.90;2.97;;;2.20;99.90;;;;;;5075432;28;20182;-62
2022/04/02 03:53:36;;;;;;;4.67;2.83;;;2.20;99.90;;;;;;5075506;28;20534;-62
2022/04/02 03:56:02;;;;;;;4.10;2.80;;;2.20;99.90;;;;;;5075030;28;20762;-61
2022/04/02 03:58:28;;;;;;;3.97;3.17;;;2.30;99.90;;;;;;5075157;28;20222;-62
2022/04/02 04:00:54;;;;;;;6.30;3.00;;;2.20;99.90;;;;;;5075283;28;20527;-61
2022/04/02 04:03:20;;;;;;;3.87;2.97;;;2.30;99.90;;;;;;5075068;28;20180;-61
2022/04/02 04:05:46;;;;;;;6.27;3.30;;;2.30;99.90;;;;;;5074741;28;20167;-61
2022/04/02 04:08:12;;;;;;;3.77;3.00;;;2.30;99.90;;;;;;5074958;28;20181;-61
2022/04/02 04:10:37;;;;;;;6.67;3.20;;;2.30;99.90;;;;;;5075249;28;20183;-62
2022/04/02 04:13:03;;;;;;;4.57;3.10;;;2.30;99.90;;;;;;5074641;28;20685;-62
2022/04/02 04:15:29;;;;;;;3.20;2.90;;;2.40;99.90;;;;;;5075111;28;20176;-62
2022/04/02 04:17:56;;;;;;;2.87;2.60;;;2.40;99.90;;;;;;5074916;28;20670;-62
2022/04/02 04:20:22;;;;;;;7.70;3.20;;;2.40;99.90;;;;;;5074478;28;20167;-61
2022/04/02 04:22:48;;;;;;;4.53;2.70;;;2.50;99.90;;;;;;5074830;28;20200;-62
2022/04/02 04:25:14;;;;;;;3.57;2.80;;;2.50;99.90;;;;;;5074727;28;20202;-62
2022/04/02 04:27:39;;;;;;;5.67;3.27;;;2.50;99.90;;;;;;5074519;28;20176;-62
2022/04/02 04:30:07;;;;;;;6.13;2.80;;;2.50;99.90;;;;;;5074934;28;20171;-62
2022/04/02 04:32:33;;;;;;;5.07;3.00;;;2.50;99.90;;;;;;5074779;28;20213;-62
2022/04/02 04:34:58;;;;;;;5.03;3.20;;;2.50;99.90;;;;;;5074078;28;20648;-62
2022/04/02 04:37:25;;;;;;;3.27;2.70;;;2.50;99.90;;;;;;5074951;28;20209;-61
2022/04/02 04:39:50;;;;;;;5.13;2.67;;;2.50;99.90;;;;;;5074654;28;20182;-62
2022/04/02 04:42:16;;;;;;;4.57;2.43;;;2.40;99.90;;;;;;5074062;28;20183;-62
2022/04/02 04:44:43;;;;;;;5.27;3.03;;;2.40;99.90;;;;;;5074490;28;20225;-62
2022/04/02 04:47:09;;;;;;;3.20;2.90;;;2.30;99.90;;;;;;5074135;28;20237;-60
2022/04/02 04:49:35;;;;;;;3.10;2.80;;;2.30;99.90;;;;;;5073995;28;20657;-62
2022/04/02 04:52:00;;;;;;;5.10;2.83;;;2.30;99.90;;;;;;5074347;28;20183;-62
2022/04/02 04:54:26;;;;;;;3.80;2.70;;;2.30;99.90;;;;;;5074089;28;20303;-63
2022/04/02 04:56:52;;;;;;;10.17;3.30;;;2.30;99.90;;;;;;5073649;28;20296;-62
2022/04/02 04:59:17;;;;;;;2.90;2.70;;;2.20;99.90;;;;;;5073614;28;20236;-62
2022/04/02 05:01:43;;;;;;;3.20;2.57;;;2.20;99.90;;;;;;5073909;28;20178;-63
2022/04/02 05:04:09;;;;;;;6.23;3.30;;;2.20;99.90;;;;;;5073617;28;20180;-63
2022/04/02 05:06:35;;;;;;;4.37;3.10;;;2.30;99.90;;;;;;5073676;28;20174;-63
2022/04/02 05:09:02;;;;;;;3.17;2.83;;;2.30;99.90;;;;;;5074108;28;20229;-62
2022/04/02 05:11:27;;;;;;;9.60;3.03;;;2.20;99.90;;;;;;5073548;28;20172;-62
2022/04/02 05:13:53;;;;;;;3.10;2.80;;;2.20;99.90;;;;;;5073809;28;20282;-62
2022/04/02 05:16:19;;;;;;;4.73;3.47;;;2.30;99.90;;;;;;5073533;28;20173;-61
2022/04/02 05:18:46;;;;;;;3.20;2.90;;;2.30;99.90;;;;;;5073248;28;20207;-62
2022/04/02 05:21:11;;;;;;;3.40;3.10;;;2.20;99.90;;;;;;5073837;28;20168;-62
2022/04/02 05:23:37;;;;;;;4.93;3.60;;;2.20;99.90;;;;;;5073439;28;20580;-62
2022/04/02 05:26:03;;;;;;;4.07;3.07;;;2.30;99.90;;;;;;5073589;28;20177;-62
2022/04/02 05:28:28;;;;;;;5.73;3.17;;;2.30;99.90;;;;;;5073632;28;20226;-62
2022/04/02 05:30:54;;;;;;;3.83;3.10;;;2.30;99.90;;;;;;5073373;28;20630;-62
2022/04/02 05:33:21;;;;;;;4.07;3.27;;;2.30;99.90;;;;;;5073177;28;20184;-62
2022/04/02 05:35:47;;;;;;;4.43;3.13;;;2.30;99.90;;;;;;5073460;28;20218;-62
2022/04/02 05:38:13;;;;;;;4.00;2.80;;;2.20;99.90;;;;;;5073488;28;20435;-61
2022/04/02 05:40:39;;;;;;;6.17;2.80;;;2.20;99.90;;;;;;5073250;28;20173;-61
2022/04/02 05:43:06;;;;;;;3.80;3.00;;;2.20;99.90;;;;;;5073347;28;20191;-61
2022/04/02 05:45:32;;;;;;;4.13;2.90;;;2.20;99.90;;;;;;5072414;28;20259;-61
2022/04/02 05:47:57;;;;;;;4.10;3.00;;;2.30;99.90;;;;;;5072563;28;20679;-61
2022/04/02 05:50:25;;;;;;;3.43;2.60;;;2.40;99.90;;;;;;5073059;28;20290;-62
2022/04/02 05:52:51;;;;;;;5.80;2.83;;;2.40;99.90;;;;;;5073199;28;20169;-62
2022/04/02 05:55:17;;;;;;;5.80;2.97;;;2.50;99.90;;;;;;5072693;28;20223;-62
2022/04/02 05:57:45;;;;;;;3.70;2.77;;;2.50;99.90;;;;;;5071321;28;20212;-62
2022/04/02 06:00:13;;;;;;;3.10;2.57;;;2.50;99.90;;;;;;5073139;28;20172;-62
2022/04/02 06:02:39;;;;;;;4.27;2.70;;;2.50;99.90;;;;;;5072791;28;20179;-61
2022/04/02 06:05:07;;;;;;;3.00;2.73;;;2.70;99.90;;;;;;5072936;28;20241;-62
2022/04/02 06:07:33;;;;;;;4.47;2.50;;;2.80;99.90;;;;;;5073048;28;20184;-62
2022/04/02 06:09:59;;;;;;;3.47;2.90;;;2.90;99.90;;;;;;5073174;28;20185;-62
2022/04/02 06:12:25;;;;;;;3.57;2.53;;;3.00;99.90;;;;;;5072356;28;20251;-61
2022/04/02 06:14:50;;;;;;;6.37;2.47;;;3.10;99.90;;;;;;5072537;28;20276;-62
2022/04/02 06:17:16;;;;;;;3.70;2.67;;;3.20;99.90;;;;;;5072983;28;20236;-62
2022/04/02 06:19:42;;;;;;;4.20;2.53;;;3.30;99.90;;;;;;5072568;28;20179;-61
2022/04/02 06:22:07;;;;;;;3.70;2.80;;;3.40;99.90;;;;;;5072598;28;20267;-61
2022/04/02 06:24:34;;;;;;;7.90;2.30;;;3.50;99.90;;;;;;5072583;28;20312;-61
2022/04/02 06:27:00;;;;;;;3.27;2.73;;;3.40;99.90;;;;;;5072429;28;20171;-61
2022/04/02 06:29:26;;;;;;;3.77;2.80;;;3.60;99.90;;;;;;5071940;28;20168;-62
2022/04/02 06:31:51;;;;;;;5.10;3.00;;;3.60;99.50;;;;;;5073011;28;20537;-60
2022/04/02 06:34:17;;;;;;;4.17;2.60;;;3.80;99.70;;;;;;5072620;28;20177;-62
2022/04/02 06:36:42;;;;;;;3.43;3.13;;;4.30;98.80;;;;;;5072392;28;20636;-61
2022/04/02 06:39:08;;;;;;;5.13;2.53;;;4.50;97.70;;;;;;5072736;28;20172;-62
2022/04/02 06:41:34;;;;;;;3.10;2.40;;;4.60;96.80;;;;;;5072313;28;20687;-62
2022/04/02 06:43:59;;;;;;;4.10;2.10;;;4.50;96.50;;;;;;5071968;28;20181;-62
2022/04/02 06:46:25;;;;;;;3.70;2.40;;;4.40;96.20;;;;;;5072362;28;20184;-61
2022/04/02 06:48:50;;;;;;;5.73;2.90;;;4.30;96.40;;;;;;5071880;28;20249;-62
2022/04/02 06:51:17;;;;;;;6.77;3.30;;;4.20;96.60;;;;;;5072780;28;20176;-62
2022/04/02 06:53:43;;;;;;;4.33;2.60;;;4.30;96.40;;;;;;5070869;28;20542;-62
2022/04/02 06:56:08;;;;;;;2.70;2.50;;;4.60;96.00;;;;;;5072238;28;20232;-61
2022/04/02 06:58:37;;;;;;;4.57;2.60;;;4.40;95.10;;;;;;5071025;28;20689;-61
2022/04/02 07:01:03;;;;;;;3.20;2.90;;;4.40;96.00;;;;;;5072316;28;20177;-62
2022/04/02 07:03:28;;;;;;;3.33;2.17;;;4.50;95.10;;;;;;5072523;28;20172;-62
2022/04/02 07:05:54;;;;;;;3.47;2.90;;;4.70;93.30;;;;;;5071841;28;20226;-62
2022/04/02 07:08:20;;;;;;;2.33;2.13;;;4.80;92.80;;;;;;5072116;28;20509;-62
2022/04/02 07:10:45;;;;;;;2.87;2.00;;;4.80;92.60;;;;;;5076164;28;20263;-62
2022/04/02 07:13:11;;;;;;;4.43;2.10;;;5.00;90.90;;;;;;5075532;28;20267;-62
2022/04/02 07:15:39;;;;;;;2.70;2.50;;;5.10;90.40;;;;;;5075737;28;20230;-62
2022/04/02 07:18:07;;;;;;;4.20;2.90;;;5.30;90.70;;;;;;5075882;28;20203;-61
2022/04/02 07:20:35;;;;;;;2.40;2.20;;;5.60;89.10;;;;;;5075867;28;20168;-61
2022/04/02 07:23:07;;;;;;;5.30;3.30;;;5.50;86.30;;;;;;5075360;28;20682;-62
2022/04/02 07:25:39;;;;;;;4.97;2.40;;;5.30;88.80;;;;;;5075317;28;20168;-62
2022/04/02 07:28:06;;;;;;;2.93;1.90;;;5.20;88.00;;;;;;5075626;28;20195;-62
2022/04/02 07:30:35;;;;;;;6.87;2.63;;;5.10;88.70;;;;;;5075746;28;20213;-62
2022/04/02 07:33:01;;;;;;;4.60;2.80;;;5.30;89.10;;;;;;5075196;28;20176;-62
2022/04/02 07:35:37;;;;;;;2.40;2.20;;;5.30;88.70;;;;;;5075327;28;20176;-62
2022/04/02 07:38:06;;;;;;;4.10;2.93;;;5.40;88.90;;;;;;5076015;28;20314;-62
2022/04/02 07:40:49;;;;;;;4.17;2.33;;;5.70;87.20;;;;;;5075323;28;20246;-62
2022/04/02 07:43:31;;;;;;;3.93;2.17;;;5.80;84.50;;;;;;5074634;28;20172;-63
2022/04/02 07:46:05;;;;;;;3.13;2.60;;;6.10;83.10;;;;;;5075111;28;20168;-61
2022/04/02 07:48:32;;;;;;;4.27;2.97;;;6.20;82.50;;;;;;5074988;28;20164;-62
2022/04/02 07:51:03;;;;;;;2.47;2.27;;;6.60;80.90;;;;;;5075546;28;20161;-62
2022/04/02 07:53:41;;;;;;;4.07;2.40;;;6.90;79.80;;;;;;5074870;28;20169;-62
2022/04/02 07:56:08;;;;;;;2.83;2.30;;;7.30;77.20;;;;;;5074482;28;20314;-62
2022/04/02 07:58:38;;;;;;;3.30;2.37;;;7.40;74.70;;;;;;5074412;28;20287;-62
2022/04/02 08:01:04;;;;;;;2.50;2.10;;;7.60;73.80;;;;;;5074770;28;20670;-62
2022/04/02 08:03:30;;;;;;;3.07;2.37;;;7.20;74.30;;;;;;5075528;28;20172;-61
2022/04/02 08:05:56;;;;;;;2.43;2.23;;;7.10;75.00;;;;;;5074961;28;20172;-62
2022/04/02 08:08:25;;;;;;;4.00;2.70;;;7.70;76.50;;;;;;5074422;28;20554;-62
2022/04/02 08:10:55;;;;;;;5.90;2.50;;;7.80;73.40;;;;;;5074418;28;20180;-62
2022/04/02 08:13:22;;;;;;;4.53;2.20;;;8.70;71.60;;;;;;5075041;28;20562;-61
2022/04/02 08:15:51;;;;;;;2.47;2.30;;;8.40;67.40;;;;;;5074529;28;20180;-62
2022/04/02 08:18:22;;;;;;;3.40;2.30;;;8.20;68.60;;;;;;5074452;28;20215;-63
2022/04/02 08:20:49;;;;;;;2.63;2.43;;;8.00;69.20;;;;;;5073918;28;20654;-63
2022/04/02 08:23:15;;;;;;;2.77;2.57;;;8.40;70.90;;;;;;5074390;28;20185;-62
2022/04/02 08:26:11;;;;;;;5.07;2.70;;;8.40;68.20;;;;;;5073760;28;20172;-63
2022/04/02 08:29:02;;;;;;;2.07;1.93;;;9.00;66.70;;;;;;5032512;28;20185;-61
2022/04/02 08:32:12;;;;;;;4.67;2.30;;;8.90;63.60;;;;;;5032236;28;20648;-62
2022/04/02 08:35:02;;;;;;;3.50;2.40;;;8.60;65.30;;;;;;5032065;28;20181;-62
2022/04/02 08:37:36;;;;;;;2.20;1.97;;;8.90;66.60;;;;;;5032686;28;20214;-61
2022/04/02 08:40:08;;;;;;;4.27;2.70;;;9.40;62.80;;;;;;5031359;28;20649;-63
2022/04/02 08:43:07;;;;;;;4.53;2.77;;;9.70;62.70;;;;;;5032602;28;20245;-61
2022/04/02 08:45:34;;;;;;;2.03;1.93;;;10.30;59.50;;;;;;5031881;28;20178;-62
2022/04/02 08:48:17;;;;;;;2.63;2.43;;;9.40;60.20;;;;;;5032132;28;20174;-62
2022/04/02 08:50:48;;;;;;;2.63;2.03;;;8.80;62.20;;;;;;5032031;28;20174;-62
2022/04/02 08:53:22;;;;;;;2.83;1.97;;;9.10;62.20;;;;;;5032018;28;20178;-62
2022/04/02 08:56:01;;;;;;;2.53;2.33;;;8.80;61.30;;;;;;5019469;28;20238;-62
2022/04/02 08:58:41;;;;;;;2.10;1.90;;;8.50;61.70;;;;;;5011659;28;20308;-62
2022/04/02 09:01:09;;;;;;;2.60;2.40;;;7.60;63.70;;;;;;5011962;28;20261;-61
2022/04/02 09:04:01;;;;;;;4.00;2.67;;;7.70;66.00;;;;;;5012374;28;20183;-63
2022/04/02 09:07:05;;;;;;;2.37;2.17;;;9.10;62.50;;;;;;5030453;28;20174;-62
2022/04/02 09:09:59;;;;;;;9.00;2.93;;;9.20;60.70;;;;;;5033293;28;20231;-62
2022/04/02 09:12:27;;;;;;;3.03;2.30;;;9.20;62.10;;;;;;5033589;28;20162;-62
2022/04/02 09:15:12;;;;;;;3.23;2.43;;;10.10;59.00;;;;;;5033516;28;20166;-62
2022/04/02 09:18:00;;;;;;;6.10;2.77;;;10.40;58.70;;;;;;5033172;28;20726;-63
2022/04/02 09:20:38;;;;;;;5.50;2.60;;;11.70;56.30;;;;;;5033587;28;20214;-63
2022/04/02 09:23:15;;;;;;;3.93;2.80;;;11.50;54.40;;;;;;5033288;28;20189;-62
2022/04/02 09:26:13;;;;;;;3.07;2.60;;;10.30;55.50;;;;;;5033076;28;20170;-62
2022/04/02 09:29:04;;;;;;;3.53;3.17;;;8.80;59.50;;;;;;5033645;28;20303;-62
2022/04/02 09:31:36;;;;;;;2.30;2.13;;;8.10;65.90;;;;;;5033228;28;20540;-62
2022/04/02 09:34:39;;;;;;;4.50;2.47;;;9.00;63.00;;;;;;5032545;28;20269;-62
2022/04/02 09:37:32;;;;;;;4.60;2.67;;;9.40;61.60;;;;;;5033195;28;20208;-61
2022/04/02 09:40:05;;;;;;;3.37;2.37;;;8.40;61.10;;;;;;5032677;28;20208;-61
2022/04/02 09:42:37;;;;;;;4.90;2.47;;;8.30;64.40;;;;;;5033334;28;20178;-62
2022/04/02 09:45:09;;;;;;;3.03;2.70;;;9.00;63.30;;;;;;5033216;28;20637;-63
2022/04/02 09:47:49;;;;;;;5.80;3.07;;;10.70;59.10;;;;;;5032706;28;20296;-62
2022/04/02 09:50:17;;;;;;;3.03;2.83;;;10.40;57.70;;;;;;5032882;28;20660;-62
2022/04/02 09:52:55;;;;;;;2.90;2.70;;;9.50;58.50;;;;;;5032348;28;20202;-62
2022/04/02 09:55:29;;;;;;;4.10;3.00;;;8.50;60.90;;;;;;5048329;28;20295;-61
2022/04/02 09:58:10;;;;;;;4.30;2.70;;;9.00;63.40;;;;;;5072211;28;20216;-63
2022/04/02 10:00:58;;;;;;;3.10;2.80;;;8.70;61.90;;;;;;5073019;28;20173;-62
2022/04/02 10:03:38;;;;;;;5.43;2.80;;;9.40;61.80;;;;;;5072112;28;20504;-61
2022/04/02 10:06:11;;;;;;;4.60;3.00;;;9.40;59.70;;;;;;5072747;28;20210;-62
2022/04/02 10:09:09;;;;;;;5.80;2.83;;;8.90;60.80;;;;;;5072189;28;20301;-63
2022/04/02 10:11:52;;;;;;;6.10;3.20;;;8.50;62.50;;;;;;5072050;28;20256;-63
2022/04/02 10:14:25;;;;;;;4.40;3.17;;;8.60;64.80;;;;;;5072799;28;20567;-63
2022/04/02 10:16:56;;;;;;;4.50;2.70;;;8.60;63.80;;;;;;5072398;28;20180;-62
2022/04/02 10:19:30;;;;;;;4.17;2.67;;;8.50;61.90;;;;;;5072539;28;20172;-63
2022/04/02 10:22:10;;;;;;;3.27;2.63;;;8.30;63.40;;;;;;5072240;28;20175;-62
2022/04/02 10:24:38;;;;;;;5.43;3.17;;;8.20;64.00;;;;;;5072701;28;20187;-62
2022/04/02 10:27:06;;;;;;;3.03;2.70;;;8.80;64.00;;;;;;5072449;28;20180;-62
2022/04/02 10:29:44;;;;;;;4.07;2.90;;;9.00;61.10;;;;;;5071787;28;20177;-63
2022/04/02 10:32:28;;;;;;;2.93;2.60;;;8.60;61.60;;;;;;5071762;28;20176;-63
2022/04/02 10:35:07;;;;;;;2.93;2.63;;;8.00;61.40;;;;;;5072187;28;20168;-63
2022/04/02 10:37:39;;;;;;;3.10;2.83;;;7.40;62.50;;;;;;5072321;28;20261;-63
2022/04/02 10:40:12;;;;;;;3.23;2.70;;;7.20;65.80;;;;;;5072451;28;20165;-63
2022/04/02 10:42:50;;;;;;;4.53;2.93;;;7.50;65.60;;;;;;5072096;28;20177;-62
2022/04/02 10:45:18;;;;;;;3.23;2.93;;;7.20;65.70;;;;;;5075771;28;20263;-63
2022/04/02 10:47:54;;;;;;;5.03;3.10;;;7.10;65.80;;;;;;5076431;28;20222;-62
2022/04/02 10:50:22;;;;;;;2.53;2.33;;;6.60;68.10;;;;;;5075107;28;20215;-64
2022/04/02 10:52:49;;;;;;;5.53;3.10;;;6.40;70.50;;;;;;5075956;28;20230;-64
2022/04/02 10:55:23;;;;;;;3.83;3.33;;;6.60;72.30;;;;;;5075963;28;20219;-64
2022/04/02 10:57:48;;;;;;;2.73;2.53;;;6.80;71.10;;;;;;5075875;28;20291;-63
2022/04/02 11:00:14;;;;;;;2.53;2.33;;;6.60;69.90;;;;;;5076030;28;20243;-62
2022/04/02 11:02:42;;;;;;;2.57;2.37;;;6.30;70.80;;;;;;5076013;28;20176;-63
2022/04/02 11:05:10;;;;;;;3.63;3.23;;;6.10;71.60;;;;;;5074933;28;20164;-62
2022/04/02 11:07:42;;;;;;;3.60;2.30;;;6.30;73.60;;;;;;5076147;28;20169;-63
2022/04/02 11:10:16;;;;;;;4.60;3.03;;;6.20;72.50;;;;;;5075802;28;20212;-64
2022/04/02 11:12:44;;;;;;;3.90;3.50;;;6.40;73.90;;;;;;5076321;28;20173;-63
2022/04/02 11:15:19;;;;;;;3.80;3.33;;;6.60;73.30;;;;;;5075247;28;20199;-64
2022/04/02 11:17:53;;;;;;;3.43;2.27;;;6.50;73.60;;;;;;5074865;28;20667;-63
2022/04/02 11:20:24;;;;;;;4.10;3.30;;;6.90;71.40;;;;;;5075938;28;20168;-62
2022/04/02 11:23:02;;;;;;;3.93;3.07;;;7.40;69.90;;;;;;5075456;28;20173;-63
2022/04/02 11:25:36;;;;;;;3.40;2.90;;;8.00;66.60;;;;;;5074378;28;20255;-64
2022/04/02 11:28:05;;;;;;;3.50;3.30;;;8.30;65.60;;;;;;5075328;28;20173;-63
2022/04/02 11:31:03;;;;;;;3.93;3.53;;;7.60;65.60;;;;;;5075474;28;20168;-63
2022/04/02 11:33:32;;;;;;;3.40;3.10;;;7.30;68.20;;;;;;5072434;28;20267;-63
2022/04/02 11:36:06;;;;;;;3.00;2.77;;;6.90;70.00;;;;;;5075146;28;20235;-63
2022/04/02 11:38:52;;;;;;;2.93;2.73;;;6.70;72.30;;;;;;5075276;28;20212;-63
2022/04/02 11:41:31;;;;;;;4.00;3.57;;;6.50;73.80;;;;;;5074923;28;20169;-63
2022/04/02 11:44:11;;;;;;;8.23;3.60;;;6.50;76.80;;;;;;5074933;28;20187;-63
2022/04/02 11:46:54;;;;;;;7.10;4.97;;;6.80;77.00;;;;;;5075033;28;20172;-63
2022/04/02 11:49:28;;;;;;;5.03;3.50;;;6.80;77.40;;;;;;5074792;28;20287;-63
2022/04/02 11:52:17;;;;;;;5.93;4.00;;;7.00;79.20;;;;;;5075864;28;20247;-63
2022/04/02 11:54:48;;;;;;;5.03;3.77;;;7.30;79.20;;;;;;5068972;28;20234;-61
2022/04/02 11:57:15;;;;;;;4.17;3.80;;;7.30;78.70;;;;;;5073289;28;20243;-62
2022/04/02 12:00:02;;;;;;;3.40;3.10;;;7.50;79.70;;;;;;5074963;28;20271;-62
2022/04/02 12:02:43;;;;;;;12.10;3.80;;;8.10;78.90;;;;;;5075305;28;20260;-62
2022/04/02 12:05:13;;;;;;;5.70;3.67;;;9.00;75.50;;;;;;5074538;28;20175;-64
2022/04/02 12:07:52;;;;;;;8.23;4.00;;;9.40;69.90;;;;;;5074716;28;20172;-62
2022/04/02 12:10:25;;;;;;;5.80;3.70;;;9.10;67.70;;;;;;5075035;28;20595;-63
2022/04/02 12:12:53;;;;;;;5.17;4.10;;;8.90;69.20;;;;;;5073965;28;20180;-63
2022/04/02 12:15:20;;;;;;;4.43;3.73;;;8.70;68.80;;;;;;5074805;28;20254;-64
2022/04/02 12:17:47;;;;;;;4.50;3.70;;;8.50;70.40;;;;;;5074401;28;20209;-63
2022/04/02 12:20:25;;;;;;;4.00;3.60;;;8.30;71.20;;;;;;5074203;28;20251;-63
2022/04/02 12:23:05;;;;;;;5.80;4.10;;;8.10;71.50;;;;;;5074705;28;20164;-62
2022/04/02 12:25:31;;;;;;;6.47;4.00;;;8.30;72.80;;;;;;5074457;28;20180;-62
2022/04/02 12:27:57;;;;;;;5.80;3.73;;;8.60;70.90;;;;;;5074667;28;20278;-62
2022/04/02 12:30:23;;;;;;;5.30;4.00;;;8.50;69.10;;;;;;5074121;28;20263;-63
2022/04/02 12:32:49;;;;;;;4.27;3.87;;;8.60;68.50;;;;;;5073987;28;20225;-63
2022/04/02 12:35:26;;;;;;;4.23;3.83;;;8.40;68.70;;;;;;5073804;28;20177;-64
2022/04/02 12:37:57;;;;;;;3.70;3.47;;;8.20;68.20;;;;;;5074298;28;20303;-63
2022/04/02 12:40:24;;;;;;;8.27;3.93;;;8.00;67.00;;;;;;5074018;28;20207;-63
2022/04/02 12:43:05;;;;;;;4.97;3.00;;;7.70;68.70;;;;;;5074111;28;20722;-63
2022/04/02 12:45:33;;;;;;;3.30;3.00;;;7.30;69.60;;;;;;5073820;28;20180;-63
2022/04/02 12:48:05;;;;;;;3.53;3.10;;;7.20;70.20;;;;;;5073610;28;20258;-63
2022/04/02 12:50:48;;;;;;;3.40;3.10;;;7.10;71.60;;;;;;5073841;28;20268;-63
2022/04/02 12:53:27;;;;;;;6.70;3.60;;;7.30;72.90;;;;;;5074461;28;20196;-63
2022/04/02 12:55:53;;;;;;;4.43;3.20;;;7.50;73.10;;;;;;5073597;28;20305;-62
2022/04/02 12:58:34;;;;;;;4.50;3.37;;;7.90;71.40;;;;;;5072948;28;20216;-62
2022/04/02 13:01:28;;;;;;;6.70;3.70;;;8.10;69.60;;;;;;5073692;28;20172;-63
2022/04/02 13:04:08;;;;;;;5.07;3.40;;;8.10;69.50;;;;;;5071971;28;20184;-63
2022/04/02 13:06:56;;;;;;;5.10;3.60;;;8.30;68.10;;;;;;5071986;28;20250;-63
2022/04/02 13:09:29;;;;;;;3.10;2.90;;;8.40;67.00;;;;;;5073492;28;20252;-64
2022/04/02 13:12:22;;;;;;;3.23;3.03;;;7.90;66.30;;;;;;5073121;28;20181;-62
2022/04/02 13:15:03;;;;;;;5.80;3.60;;;7.30;69.30;;;;;;5072611;28;20576;-63
2022/04/02 13:20:35;;;;;;;3.43;3.13;;;7.10;73.40;;;;;;5073858;28;20198;-62
2022/04/02 13:23:05;;;;;;;5.57;3.67;;;7.00;73.50;;;;;;5073048;28;20183;-63